Time;durP1;ratioP1;P1;durP2;ratioP2;P2;SDS_P1;SDS_P2;PMS_P1;PMS_P2;Temp;Humidity;BMP_temperature;BMP_pressure;BME280_temperature;BME280_humidity;BME280_pressure;Samples;Min_cycle;Max_cycle;Signal;HPM_P1;HPM_P2
2021/07/08 00:01:29;;;;;;;4.00;3.50;;;;;;;17.39;100.00;155829.75;5071055;28;20478;-75
2021/07/08 00:04:05;;;;;;;3.90;3.20;;;;;;;17.40;100.00;155832.31;5088106;28;20447;-75
2021/07/08 00:06:40;;;;;;;3.37;3.07;;;;;;;17.40;100.00;155833.63;5052142;28;20861;-75
2021/07/08 00:09:18;;;;;;;3.30;3.00;;;;;;;17.42;100.00;155837.56;5083918;28;20538;-75
2021/07/08 00:11:53;;;;;;;7.50;4.93;;;;;;;17.42;100.00;155837.56;5063065;28;20933;-75
2021/07/08 00:14:29;;;;;;;3.43;3.13;;;;;;;17.42;100.00;155838.81;5067758;28;20489;-75
2021/07/08 00:17:06;;;;;;;3.33;3.00;;;;;;;17.43;100.00;155840.13;5051362;28;20422;-75
2021/07/08 00:19:41;;;;;;;3.60;3.30;;;;;;;17.43;100.00;155840.13;5057617;28;20536;-75
2021/07/08 00:22:17;;;;;;;4.90;2.97;;;;;;;17.42;100.00;155838.81;5055008;28;20457;-75
2021/07/08 00:24:54;;;;;;;5.47;3.40;;;;;;;17.40;100.00;155832.31;5096134;28;20480;-76
2021/07/08 00:27:29;;;;;;;3.70;3.40;;;;;;;17.39;100.00;155829.75;5062875;28;20987;-76
2021/07/08 00:30:06;;;;;;;6.00;3.37;;;;;;;17.39;100.00;155829.75;5087600;28;20474;-75
2021/07/08 00:32:42;;;;;;;3.97;3.57;;;;;;;17.35;100.00;155819.31;5050648;28;20475;-75
2021/07/08 00:35:18;;;;;;;4.40;3.40;;;;;;;17.36;100.00;155821.94;5050466;28;20438;-75
2021/07/08 00:37:53;;;;;;;3.57;3.27;;;;;;;17.37;100.00;155824.50;5052609;28;20479;-75
2021/07/08 00:40:31;;;;;;;3.63;3.33;;;;;;;17.38;100.00;155828.44;5092058;28;20446;-75
2021/07/08 00:43:07;;;;;;;5.80;4.07;;;;;;;17.41;100.00;155834.94;5069592;28;20925;-76
2021/07/08 00:45:43;;;;;;;4.80;3.40;;;;;;;17.40;100.00;155832.31;5054339;28;20478;-76
2021/07/08 00:48:18;;;;;;;5.50;4.10;;;;;;;17.40;100.00;155832.31;5068538;28;20437;-75
2021/07/08 00:50:53;;;;;;;4.17;3.77;;;;;;;17.41;100.00;155836.25;5058851;28;20929;-75
2021/07/08 00:53:29;;;;;;;4.63;3.40;;;;;;;17.41;100.00;155834.94;5089055;28;20438;-76
2021/07/08 00:56:06;;;;;;;5.50;4.20;;;;;;;17.45;100.00;155846.63;5064483;28;20422;-75
2021/07/08 00:58:46;;;;;;;3.80;3.50;;;;;;;17.46;100.00;155847.94;5071923;28;20446;-76
2021/07/08 01:01:22;;;;;;;4.23;3.83;;;;;;;17.37;100.00;155825.81;5074439;28;20433;-76
2021/07/08 01:03:57;;;;;;;3.97;3.57;;;;;;;17.37;100.00;155824.50;5076145;28;20469;-75
2021/07/08 01:06:36;;;;;;;4.80;4.23;;;;;;;17.34;100.00;155818.00;5074865;28;20481;-75
2021/07/08 01:09:12;;;;;;;5.83;3.90;;;;;;;17.29;100.00;155803.72;5108585;28;20533;-76
2021/07/08 01:11:49;;;;;;;3.90;3.60;;;;;;;17.27;100.00;155799.78;5060941;28;20801;-75
2021/07/08 01:14:24;;;;;;;4.43;3.57;;;;;;;17.24;100.00;155790.66;5038964;28;20552;-76
2021/07/08 01:17:00;;;;;;;4.80;4.40;;;;;;;17.15;100.00;155767.28;5097495;28;20446;-75
2021/07/08 01:19:37;;;;;;;5.37;4.40;;;;;;;17.10;100.00;155754.25;5073888;28;20449;-75
2021/07/08 01:22:14;;;;;;;4.53;4.13;;;;;;;17.10;100.00;155754.25;5103884;28;20481;-75
2021/07/08 01:24:50;;;;;;;6.93;4.17;;;;;;;17.09;100.00;155751.63;5107953;28;20435;-76
2021/07/08 01:27:26;;;;;;;4.90;4.50;;;;;;;17.02;100.00;155736.00;5096916;28;20470;-76
2021/07/08 01:30:02;;;;;;;4.43;3.57;;;;;;;17.09;100.00;155752.94;5073485;28;20438;-75
2021/07/08 01:32:38;;;;;;;6.07;4.10;;;;;;;17.16;100.00;155771.16;5083330;28;20486;-76
2021/07/08 01:35:14;;;;;;;5.53;4.03;;;;;;;17.15;100.00;155767.28;5073878;28;20469;-76
2021/07/08 01:37:51;;;;;;;4.87;4.37;;;;;;;17.19;100.00;155777.66;5058139;28;20553;-75
2021/07/08 01:40:27;;;;;;;4.50;4.10;;;;;;;17.15;100.00;155767.28;5073284;28;20470;-75
2021/07/08 01:43:03;;;;;;;4.67;3.60;;;;;;;17.14;100.00;155764.66;5107148;28;20596;-75
2021/07/08 01:45:39;;;;;;;4.53;4.13;;;;;;;17.15;100.00;155768.59;5072487;28;20478;-75
2021/07/08 01:48:14;;;;;;;13.37;4.80;;;;;;;17.10;100.00;155754.25;5107543;28;20445;-76
2021/07/08 01:50:50;;;;;;;6.00;4.07;;;;;;;17.10;100.00;155755.56;5072638;28;20446;-76
2021/07/08 01:53:26;;;;;;;4.90;4.00;;;;;;;17.10;100.00;155754.25;5071357;28;20451;-76
2021/07/08 01:56:02;;;;;;;4.93;4.53;;;;;;;17.09;100.00;155751.63;5063262;28;20897;-76
2021/07/08 01:58:38;;;;;;;3.83;3.53;;;;;;;17.11;100.00;155756.84;5057855;28;20809;-76
2021/07/08 02:01:23;;;;;;;4.90;4.50;;;;;;;17.13;100.00;155762.06;5071977;28;20465;-76
2021/07/08 02:03:58;;;;;;;4.50;3.90;;;;;;;17.13;100.00;155762.06;5107411;28;20438;-76
2021/07/08 02:06:34;;;;;;;3.90;3.60;;;;;;;17.11;100.00;155758.16;5090453;28;21071;-76
2021/07/08 02:09:11;;;;;;;3.50;3.07;;;;;;;17.04;100.00;155741.25;5090284;28;20867;-76
2021/07/08 02:11:47;;;;;;;5.20;3.93;;;;;;;17.04;100.00;155739.94;5074043;28;20446;-76
2021/07/08 02:14:22;;;;;;;3.77;3.47;;;;;;;17.01;100.00;155733.44;5074452;28;20948;-76
2021/07/08 02:16:58;;;;;;;4.10;3.67;;;;;;;17.02;100.00;155734.75;5095906;28;20443;-76
2021/07/08 02:19:33;;;;;;;4.10;3.70;;;;;;;17.01;100.00;155733.44;5087314;28;20937;-76
2021/07/08 02:22:09;;;;;;;4.20;3.90;;;;;;;16.99;100.00;155728.25;5072208;28;20434;-76
2021/07/08 02:24:47;;;;;;;3.83;3.53;;;;;;;16.98;100.00;155725.63;5055939;28;20441;-76
2021/07/08 02:27:22;;;;;;;3.50;3.20;;;;;;;16.99;100.00;155726.94;5073860;28;20556;-76
2021/07/08 02:29:58;;;;;;;3.93;3.37;;;;;;;16.98;100.00;155724.31;5106358;28;20453;-76
2021/07/08 02:32:33;;;;;;;4.60;4.20;;;;;;;16.98;100.00;155725.63;5106499;28;20426;-75
2021/07/08 02:35:11;;;;;;;4.13;3.80;;;;;;;16.98;100.00;155724.31;5073383;28;20414;-75
2021/07/08 02:37:47;;;;;;;4.23;3.70;;;;;;;16.98;100.00;155725.63;5086131;28;20878;-75
2021/07/08 02:40:26;;;;;;;4.90;3.90;;;;;;;16.98;100.00;155724.31;5088472;28;20439;-75
2021/07/08 02:43:03;;;;;;;4.83;4.20;;;;;;;16.95;100.00;155717.81;5052481;28;20439;-75
2021/07/08 02:45:40;;;;;;;4.80;4.40;;;;;;;16.93;100.00;155712.63;5085899;28;20431;-76
2021/07/08 02:48:18;;;;;;;4.90;4.37;;;;;;;16.89;100.00;155702.19;5052641;28;20463;-75
2021/07/08 02:50:55;;;;;;;5.57;4.10;;;;;;;16.90;100.00;155704.81;5069104;28;20447;-75
2021/07/08 02:53:30;;;;;;;5.57;3.87;;;;;;;16.87;100.00;155695.69;5077538;28;20514;-76
2021/07/08 02:56:07;;;;;;;6.37;4.47;;;;;;;16.89;100.00;155702.19;5062235;28;20422;-75
2021/07/08 02:58:43;;;;;;;4.40;4.00;;;;;;;16.88;100.00;155698.31;5081389;28;20533;-75
2021/07/08 03:01:18;;;;;;;4.50;4.10;;;;;;;16.88;100.00;155699.63;5096243;28;20455;-75
2021/07/08 03:03:54;;;;;;;4.40;3.83;;;;;;;16.87;100.00;155695.69;5068942;28;20450;-76
2021/07/08 03:06:29;;;;;;;5.50;4.20;;;;;;;16.86;100.00;155694.41;5075952;28;20478;-75
2021/07/08 03:09:05;;;;;;;4.60;4.10;;;;;;;16.85;100.00;155691.81;5052720;28;20451;-75
2021/07/08 03:11:42;;;;;;;5.20;4.70;;;;;;;16.84;100.00;155687.88;5085511;28;20438;-75
2021/07/08 03:14:18;;;;;;;4.40;4.00;;;;;;;16.80;100.00;155677.47;5052447;28;20459;-75
2021/07/08 03:16:53;;;;;;;5.20;4.70;;;;;;;16.81;100.00;155681.38;5061676;28;20450;-76
2021/07/08 03:19:29;;;;;;;5.40;4.80;;;;;;;16.77;100.00;155670.97;5070687;28;20446;-75
2021/07/08 03:22:05;;;;;;;4.97;4.57;;;;;;;16.82;100.00;155684.00;5088549;28;20788;-76
2021/07/08 03:24:40;;;;;;;5.10;4.60;;;;;;;16.78;100.00;155672.28;5088644;28;20446;-75
2021/07/08 03:27:17;;;;;;;5.43;3.97;;;;;;;16.77;100.00;155670.97;5080667;28;20817;-75
2021/07/08 03:29:53;;;;;;;5.13;4.70;;;;;;;16.72;100.00;155657.97;5082531;28;20551;-76
2021/07/08 03:32:29;;;;;;;4.87;4.47;;;;;;;16.73;100.00;155660.53;5091669;28;20451;-75
2021/07/08 03:35:06;;;;;;;11.93;4.90;;;;;;;16.73;100.00;155660.53;5084866;28;20446;-76
2021/07/08 03:37:42;;;;;;;5.10;4.60;;;;;;;16.75;100.00;155664.47;5051156;28;20455;-75
2021/07/08 03:40:17;;;;;;;5.97;5.37;;;;;;;16.74;100.00;155663.16;5074602;28;20430;-75
2021/07/08 03:42:55;;;;;;;6.33;5.47;;;;;;;16.73;100.00;155660.53;5090146;28;20443;-75
2021/07/08 03:45:31;;;;;;;5.57;5.10;;;;;;;16.73;100.00;155660.53;5052099;28;20458;-75
2021/07/08 03:48:07;;;;;;;5.70;5.10;;;;;;;16.73;100.00;155660.53;5069894;28;20569;-76
2021/07/08 03:50:42;;;;;;;6.10;5.20;;;;;;;16.69;100.00;155650.16;5070677;28;20434;-75
2021/07/08 03:53:18;;;;;;;6.17;5.57;;;;;;;16.64;100.00;155637.16;5070077;28;20450;-75
2021/07/08 03:55:53;;;;;;;9.17;6.87;;;;;;;16.74;100.00;155663.16;5068209;28;20441;-75
2021/07/08 03:58:31;;;;;;;6.83;6.17;;;;;;;16.70;100.00;155651.47;5058860;28;20445;-75
2021/07/08 04:01:06;;;;;;;6.50;5.90;;;;;;;16.68;100.00;155646.28;5070660;28;20441;-75
2021/07/08 04:03:42;;;;;;;11.23;8.20;;;;;;;16.60;100.00;155626.72;5071433;28;20541;-75
2021/07/08 04:06:17;;;;;;;8.90;6.80;;;;;;;16.54;100.00;155611.16;5069688;28;20477;-75
2021/07/08 04:08:53;;;;;;;7.47;6.70;;;;;;;16.52;100.00;155604.59;5070282;28;20441;-75
2021/07/08 04:11:29;;;;;;;6.90;6.20;;;;;;;16.54;100.00;155611.16;5071204;28;20465;-75
2021/07/08 04:14:05;;;;;;;7.20;6.00;;;;;;;16.59;100.00;155624.16;5072465;28;20528;-75
2021/07/08 04:16:41;;;;;;;7.20;6.30;;;;;;;16.68;100.00;155646.28;5071028;28;20449;-76
2021/07/08 04:19:17;;;;;;;6.60;6.10;;;;;;;16.67;100.00;155644.97;5067995;28;20461;-75
2021/07/08 04:21:52;;;;;;;6.63;5.87;;;;;;;16.66;100.00;155642.34;5075027;28;20441;-75
2021/07/08 04:24:28;;;;;;;9.17;6.33;;;;;;;16.77;100.00;155670.97;5065992;28;20845;-75
2021/07/08 04:27:04;;;;;;;7.27;6.57;;;;;;;16.68;100.00;155647.53;5075296;28;20789;-75
2021/07/08 04:29:41;;;;;;;9.07;7.10;;;;;;;16.65;100.00;155639.78;5074664;28;20489;-75
2021/07/08 04:32:16;;;;;;;6.53;5.93;;;;;;;16.63;100.00;155634.53;5074018;28;20928;-75
2021/07/08 04:34:52;;;;;;;7.83;6.83;;;;;;;16.68;100.00;155647.53;5066278;28;20801;-75
2021/07/08 04:37:27;;;;;;;7.93;7.00;;;;;;;16.75;100.00;155665.78;5087829;28;20434;-75
2021/07/08 04:40:03;;;;;;;8.30;7.50;;;;;;;16.79;100.00;155676.19;5057021;28;20470;-75
2021/07/08 04:42:39;;;;;;;9.07;7.27;;;;;;;16.78;100.00;155673.59;5074544;28;20900;-75
2021/07/08 04:45:16;;;;;;;8.20;7.00;;;;;;;16.76;100.00;155668.38;5083817;28;20470;-75
2021/07/08 04:47:51;;;;;;;8.43;7.00;;;;;;;16.75;100.00;155665.78;5074105;28;20469;-75
2021/07/08 04:50:27;;;;;;;9.47;8.57;;;;;;;16.79;100.00;155674.88;5075094;28;20433;-75
2021/07/08 04:53:03;;;;;;;9.50;7.30;;;;;;;16.81;100.00;155681.38;5057598;28;20458;-76
2021/07/08 04:55:38;;;;;;;8.00;7.00;;;;;;;16.77;100.00;155669.66;5071457;28;20438;-75
2021/07/08 04:58:14;;;;;;;9.30;7.87;;;;;;;16.73;100.00;155660.53;5107340;28;20442;-76
2021/07/08 05:00:51;;;;;;;8.40;7.13;;;;;;;16.72;100.00;155657.97;5075216;28;20520;-75
2021/07/08 05:03:26;;;;;;;7.57;6.90;;;;;;;16.74;100.00;155661.88;5059326;28;20925;-75
2021/07/08 05:06:02;;;;;;;8.10;6.80;;;;;;;16.73;100.00;155659.28;5072601;28;20474;-75
2021/07/08 05:08:40;;;;;;;9.73;7.53;;;;;;;16.75;100.00;155665.78;5070968;28;20510;-75
2021/07/08 05:11:16;;;;;;;8.47;7.67;;;;;;;16.77;100.00;155670.97;5053964;28;20824;-75
2021/07/08 05:13:51;;;;;;;9.93;7.70;;;;;;;16.75;100.00;155665.78;5063687;28;20784;-76
2021/07/08 05:16:28;;;;;;;12.07;8.77;;;;;;;16.79;100.00;155674.88;5074907;28;20446;-75
2021/07/08 05:19:05;;;;;;;9.47;7.40;;;;;;;16.78;100.00;155672.28;5107608;28;20462;-75
2021/07/08 05:21:47;;;;;;;8.03;6.77;;;;;;;16.76;100.00;155668.38;5074454;28;20920;-75
2021/07/08 05:24:23;;;;;;;7.97;6.77;;;;;;;16.81;100.00;155680.09;5087691;28;20449;-75
2021/07/08 05:26:59;;;;;;;7.73;7.00;;;;;;;16.78;100.00;155673.59;5058672;28;20443;-75
2021/07/08 05:29:35;;;;;;;9.50;7.03;;;;;;;16.72;100.00;155656.66;5076525;28;20442;-75
2021/07/08 05:32:13;;;;;;;8.40;7.13;;;;;;;16.71;100.00;155655.34;5058969;28;20528;-75
2021/07/08 05:34:48;;;;;;;8.20;7.20;;;;;;;16.74;100.00;155663.16;5072201;28;20904;-75
2021/07/08 05:37:24;;;;;;;10.30;6.90;;;;;;;16.79;100.00;155674.88;5057687;28;20534;-75
2021/07/08 05:39:59;;;;;;;8.23;7.33;;;;;;;16.84;100.00;155689.19;5084833;28;20450;-80
2021/07/08 05:42:35;;;;;;;7.50;6.70;;;;;;;16.88;100.00;155699.63;5090038;28;20804;-76
2021/07/08 05:45:11;;;;;;;7.67;6.97;;;;;;;16.91;100.00;155706.13;5062720;28;21078;-76
2021/07/08 05:47:48;;;;;;;7.70;6.20;;;;;;;16.92;100.00;155708.69;5071325;28;20475;-76
2021/07/08 05:50:24;;;;;;;9.10;6.50;;;;;;;16.96;100.00;155720.44;5070233;28;20529;-77
2021/07/08 05:52:59;;;;;;;6.67;5.97;;;;;;;17.00;100.00;155730.81;5087684;28;20454;-76
2021/07/08 05:55:35;;;;;;;6.97;6.27;;;;;;;17.00;100.00;155729.50;5070135;28;20802;-75
2021/07/08 05:58:10;;;;;;;8.23;6.90;;;;;;;16.97;100.00;155723.00;5072216;28;20560;-75
2021/07/08 06:00:47;;;;;;;6.90;6.20;;;;;;;16.96;100.00;155720.44;5072056;28;20695;-75
2021/07/08 06:03:25;;;;;;;7.30;6.50;;;;;;;16.99;100.00;155728.25;5085324;28;20800;-76
2021/07/08 06:06:00;;;;;;;6.33;5.70;;;;;;;16.96;100.00;155720.44;5062342;28;20466;-75
2021/07/08 06:08:36;;;;;;;8.23;6.47;;;;;;;16.97;100.00;155723.00;5071955;28;20477;-75
2021/07/08 06:11:11;;;;;;;7.03;6.40;;;;;;;16.99;100.00;155726.94;5072059;28;20441;-76
2021/07/08 06:13:47;;;;;;;7.57;6.87;;;;;;;17.01;100.00;155733.44;5070222;28;20462;-75
2021/07/08 06:16:23;;;;;;;7.60;6.80;;;;;;;17.05;100.00;155743.81;5103393;28;20883;-75
2021/07/08 06:19:00;;;;;;;8.27;7.50;;;;;;;17.07;100.00;155746.44;5054444;28;20442;-75
2021/07/08 06:21:35;;;;;;;7.60;6.80;;;;;;;17.08;100.00;155749.06;5054231;28;20435;-75
2021/07/08 06:24:10;;;;;;;7.40;6.33;;;;;;;17.10;100.00;155754.25;5052853;28;20486;-75
2021/07/08 06:26:46;;;;;;;7.27;6.20;;;;;;;17.17;100.00;155773.78;5085990;28;20443;-76
2021/07/08 06:29:22;;;;;;;9.93;5.97;;;;;;;17.20;100.00;155780.28;5069226;28;20486;-75
2021/07/08 06:31:58;;;;;;;8.60;7.50;;;;;;;17.27;100.00;155798.47;5054057;28;20419;-76
2021/07/08 06:34:35;;;;;;;7.20;6.50;;;;;;;17.32;100.00;155811.50;5078280;28;20451;-75
2021/07/08 06:37:10;;;;;;;6.47;5.83;;;;;;;17.38;100.00;155828.44;5052712;28;20533;-75
2021/07/08 06:39:46;;;;;;;7.10;6.40;;;;;;;17.34;100.00;155816.72;5069111;28;20437;-75
2021/07/08 06:42:21;;;;;;;6.53;6.00;;;;;;;17.28;100.00;155801.09;5071996;28;20859;-75
2021/07/08 06:44:57;;;;;;;7.03;6.33;;;;;;;17.36;100.00;155821.94;5073384;28;20517;-76
2021/07/08 06:47:38;;;;;;;6.30;5.70;;;;;;;17.44;100.00;155842.75;5088609;28;20925;-76
2021/07/08 06:50:15;;;;;;;6.00;5.40;;;;;;;17.44;100.00;155842.75;5053782;28;20436;-76
2021/07/08 06:52:50;;;;;;;7.30;6.60;;;;;;;17.45;100.00;155845.34;5071145;28;20521;-76
2021/07/08 06:55:26;;;;;;;8.33;6.80;;;;;;;17.49;100.00;155855.78;5071585;28;20838;-76
2021/07/08 06:58:01;;;;;;;7.20;6.03;;;;;;;17.49;100.00;155855.78;5072805;28;20548;-76
2021/07/08 07:00:38;;;;;;;6.77;6.10;;;;;;;17.52;100.00;155863.59;5053577;28;20530;-76
2021/07/08 07:03:13;;;;;;;6.77;6.10;;;;;;;17.52;100.00;155863.59;5105979;28;20445;-76
2021/07/08 07:05:50;;;;;;;7.07;6.40;;;;;;;17.47;100.00;155851.84;5066852;28;20561;-76
2021/07/08 07:08:25;;;;;;;6.27;5.67;;;;;;;17.49;100.00;155857.09;5062955;28;20485;-76
2021/07/08 07:11:01;;;;;;;6.57;5.93;;;;;;;17.48;100.00;155853.16;5072459;28;20442;-76
2021/07/08 07:13:37;;;;;;;6.43;5.67;;;;;;;17.42;100.00;155838.81;5058532;28;20447;-76
2021/07/08 07:16:12;;;;;;;6.80;6.10;;;;;;;17.53;100.00;155866.22;5085465;28;20482;-76
2021/07/08 07:18:47;;;;;;;6.20;5.60;;;;;;;17.60;100.00;155885.78;5052016;28;20450;-76
2021/07/08 07:21:24;;;;;;;7.70;5.50;;;;;;;17.60;100.00;155885.78;5051640;28;20442;-76
2021/07/08 07:24:01;;;;;;;6.60;5.30;;;;;;;17.65;100.00;155897.47;5053079;28;20450;-76
2021/07/08 07:26:37;;;;;;;6.47;5.30;;;;;;;17.73;100.00;155918.31;5051546;28;20447;-76
2021/07/08 07:29:13;;;;;;;6.77;5.77;;;;;;;17.80;100.00;155935.22;5053641;28;20470;-76
2021/07/08 07:31:48;;;;;;;6.77;5.77;;;;;;;17.91;100.00;155963.88;5097638;28;20450;-76
2021/07/08 07:34:24;;;;;;;5.83;5.33;;;;;;;17.95;100.00;155975.56;5070927;28;20446;-76
2021/07/08 07:37:01;;;;;;;7.40;6.47;;;;;;;17.99;100.00;155986.00;5052771;28;20511;-76
2021/07/08 07:39:36;;;;;;;8.50;6.77;;;;;;;17.96;100.00;155976.88;5051571;28;20459;-76
2021/07/08 07:42:12;;;;;;;7.20;6.50;;;;;;;17.97;100.00;155980.81;5052169;28;20458;-76
2021/07/08 07:44:48;;;;;;;7.40;6.40;;;;;;;17.98;100.00;155983.38;5067985;28;20447;-76
2021/07/08 07:47:27;;;;;;;6.10;5.40;;;;;;;18.06;100.00;156002.91;5076523;28;20439;-76
2021/07/08 07:50:04;;;;;;;6.27;5.70;;;;;;;18.17;100.00;156032.88;5056828;28;20436;-76
2021/07/08 07:52:40;;;;;;;6.60;5.90;;;;;;;18.24;100.00;156049.84;5084521;28;21959;-76
2021/07/08 07:55:16;;;;;;;7.03;6.43;;;;;;;18.20;100.00;156040.69;5091165;28;20956;-76
2021/07/08 07:57:51;;;;;;;7.43;6.50;;;;;;;18.22;100.00;156044.59;5087928;28;20446;-76
2021/07/08 08:00:28;;;;;;;7.00;6.30;;;;;;;18.19;100.00;156038.09;5071216;28;20816;-76
2021/07/08 08:03:04;;;;;;;10.17;7.17;;;;;;;18.11;100.00;156017.25;5102129;28;20454;-76
2021/07/08 08:05:54;;;;;;;7.90;7.17;;;;;;;18.13;100.00;156022.50;5084482;28;20528;-76
2021/07/08 08:08:35;;;;;;;8.63;7.57;;;;;;;18.14;100.00;156025.06;5051048;28;20463;-76
2021/07/08 08:11:10;;;;;;;8.23;7.43;;;;;;;18.21;100.00;156042.00;5084721;28;20890;-76
2021/07/08 08:13:46;;;;;;;7.30;6.60;;;;;;;18.16;100.00;156030.25;5101351;28;20453;-76
2021/07/08 08:16:21;;;;;;;8.10;7.30;;;;;;;18.15;100.00;156026.38;5062409;28;20941;-76
2021/07/08 08:18:57;;;;;;;7.87;6.40;;;;;;;18.22;100.00;156045.91;5072779;28;20497;-76
2021/07/08 08:21:33;;;;;;;7.80;7.07;;;;;;;18.31;100.00;156068.06;5054945;28;20917;-76
2021/07/08 08:24:10;;;;;;;8.30;7.40;;;;;;;18.35;100.00;156077.19;5104966;28;20877;-76
2021/07/08 08:26:50;;;;;;;9.67;7.00;;;;;;;18.32;100.00;156069.38;5104506;28;20437;-76
2021/07/08 08:29:26;;;;;;;9.17;7.90;;;;;;;18.56;100.00;156131.94;5071152;28;20505;-76
2021/07/08 08:32:01;;;;;;;10.73;7.70;;;;;;;18.79;100.00;156191.84;5097545;28;20453;-76
2021/07/08 08:34:37;;;;;;;8.47;7.63;;;;;;;18.92;100.00;156225.72;5084238;28;20941;-76
2021/07/08 08:37:12;;;;;;;8.40;6.67;;;;;;;19.17;100.00;156290.88;5051806;28;20450;-76
2021/07/08 08:39:49;;;;;;;9.77;7.23;;;;;;;19.21;100.00;156301.31;5051438;28;20446;-76
2021/07/08 08:42:27;;;;;;;8.23;7.43;;;;;;;19.42;100.00;156354.78;5068110;28;21055;-76
2021/07/08 08:45:04;;;;;;;8.73;6.60;;;;;;;19.78;100.00;156447.31;5071614;28;20486;-74
2021/07/08 08:47:54;;;;;;;6.50;5.90;;;;;;;20.05;100.00;156517.75;5101640;28;20503;-74
2021/07/08 08:50:31;;;;;;;6.40;4.87;;;;;;;20.06;98.70;156520.38;5069460;28;20538;-76
2021/07/08 08:53:07;;;;;;;5.73;5.23;;;;;;;20.11;96.49;156533.41;5050730;28;20482;-74
2021/07/08 08:55:45;;;;;;;6.03;5.43;;;;;;;20.22;97.48;156562.13;5053717;28;20805;-74
2021/07/08 08:58:22;;;;;;;4.63;4.23;;;;;;;20.42;98.40;156614.31;5101457;28;20447;-74
2021/07/08 09:01:02;;;;;;;5.27;4.77;;;;;;;20.38;95.83;156602.59;5069608;28;20564;-74
2021/07/08 09:03:39;;;;;;;6.07;4.90;;;;;;;20.57;98.82;156653.44;5097279;28;20455;-74
2021/07/08 09:06:16;;;;;;;7.17;5.60;;;;;;;20.67;98.81;156676.94;5072439;28;20816;-74
2021/07/08 09:08:53;;;;;;;5.23;4.73;;;;;;;20.66;95.42;156675.63;5065855;28;20473;-74
2021/07/08 09:11:30;;;;;;;6.30;5.70;;;;;;;20.77;95.08;156703.03;5103004;28;20451;-74
2021/07/08 09:14:07;;;;;;;7.43;5.27;;;;;;;20.64;92.42;156671.72;5092298;28;20461;-74
2021/07/08 09:16:42;;;;;;;9.23;6.07;;;;;;;20.68;92.01;156679.56;5075316;28;20829;-74
2021/07/08 09:19:22;;;;;;;5.43;4.93;;;;;;;20.83;95.20;156718.69;5075034;28;20442;-74
2021/07/08 09:22:02;;;;;;;7.63;5.60;;;;;;;20.70;90.81;156684.78;5057399;28;20446;-74
2021/07/08 09:24:37;;;;;;;6.83;6.23;;;;;;;20.78;95.52;156705.66;5096128;28;20485;-74
2021/07/08 09:27:14;;;;;;;6.10;5.40;;;;;;;20.84;94.33;156722.59;5058996;28;20818;-74
2021/07/08 09:29:49;;;;;;;7.77;5.00;;;;;;;20.90;95.34;156736.94;5070306;28;20480;-76
2021/07/08 09:32:27;;;;;;;6.23;5.50;;;;;;;20.98;96.35;156759.13;5070510;28;20461;-76
2021/07/08 09:35:04;;;;;;;7.17;6.47;;;;;;;21.06;97.27;156778.69;5072713;28;20446;-77
2021/07/08 09:37:41;;;;;;;16.00;5.60;;;;;;;20.96;91.74;156752.63;5074567;28;20445;-76
2021/07/08 09:40:21;;;;;;;6.30;5.63;;;;;;;20.90;93.99;156738.25;5055866;28;20483;-76
2021/07/08 09:42:57;;;;;;;6.20;5.60;;;;;;;20.83;93.80;156718.69;5088831;28;20754;-76
2021/07/08 09:45:44;;;;;;;6.10;4.83;;;;;;;21.05;96.83;156776.06;5086923;28;20438;-76
2021/07/08 09:48:19;;;;;;;5.33;4.73;;;;;;;21.03;93.11;156772.19;5058817;28;20435;-77
2021/07/08 09:50:56;;;;;;;7.50;5.10;;;;;;;21.09;93.39;156787.91;5083784;28;20457;-76
2021/07/08 09:53:31;;;;;;;5.53;5.03;;;;;;;21.13;93.36;156797.00;5066134;28;20805;-76
2021/07/08 09:56:20;;;;;;;5.20;4.80;;;;;;;21.08;91.42;156785.28;5072689;28;20434;-76
2021/07/08 09:58:58;;;;;;;5.10;4.00;;;;;;;21.10;89.01;156789.22;5071566;28;20818;-77
2021/07/08 10:01:34;;;;;;;4.20;3.80;;;;;;;21.22;91.61;156820.53;5079286;28;20831;-76
2021/07/08 10:04:09;;;;;;;3.97;3.07;;;;;;;21.17;86.72;156808.78;5073171;28;20529;-76
2021/07/08 10:06:45;;;;;;;3.70;3.27;;;;;;;21.11;86.85;156793.13;5072212;28;20478;-76
2021/07/08 10:09:20;;;;;;;4.20;3.80;;;;;;;21.19;91.69;156814.00;5074115;28;20473;-76
2021/07/08 10:11:56;;;;;;;5.37;3.30;;;;;;;21.19;91.48;156812.69;5057821;28;20450;-76
2021/07/08 10:14:33;;;;;;;3.80;3.40;;;;;;;21.26;88.98;156830.94;5102088;28;20933;-76
2021/07/08 10:17:09;;;;;;;3.60;3.30;;;;;;;21.25;86.92;156828.34;5096955;28;20948;-77
2021/07/08 10:19:45;;;;;;;3.40;3.10;;;;;;;21.17;85.77;156807.47;5102235;27;20442;-76
2021/07/08 10:22:21;;;;;;;3.60;2.90;;;;;;;21.38;84.51;156860.97;5069362;28;20446;-76
2021/07/08 10:24:56;;;;;;;3.70;3.13;;;;;;;21.35;83.28;156853.13;5070290;28;20470;-77
2021/07/08 10:27:32;;;;;;;3.80;2.90;;;;;;;21.29;82.47;156837.50;5103172;28;20526;-77
2021/07/08 10:30:11;;;;;;;2.30;2.10;;;;;;;21.21;78.95;156817.91;5078957;28;20474;-76
2021/07/08 10:32:46;;;;;;;2.63;2.30;;;;;;;21.29;84.09;156838.78;5057000;28;20465;-76
2021/07/08 10:35:37;;;;;;;2.90;2.40;;;;;;;21.53;81.17;156901.44;5065872;28;20445;-76
2021/07/08 10:38:40;;;;;;;4.13;2.30;;;;;;;21.37;77.63;156859.66;5089582;28;20901;-77
2021/07/08 10:41:45;;;;;;;3.17;2.23;;;;;;;21.17;78.53;156807.47;5063221;28;21228;-76
2021/07/08 10:44:40;;;;;;;2.70;2.50;;;;;;;21.03;78.51;156772.19;5094856;28;20449;-76
2021/07/08 10:47:47;;;;;;;2.70;2.37;;;;;;;21.08;79.96;156783.97;5100195;28;20441;-77
2021/07/08 10:50:45;;;;;;;3.60;2.70;;;;;;;21.16;81.61;156804.84;5027934;28;20468;-76
2021/07/08 10:53:26;;;;;;;3.10;2.80;;;;;;;21.07;80.06;156781.38;5070028;28;20450;-74
2021/07/08 10:56:03;;;;;;;4.43;2.70;;;;;;;21.03;80.04;156772.19;5071802;28;20438;-74
2021/07/08 10:58:49;;;;;;;4.20;2.60;;;;;;;21.04;81.95;156773.50;5055770;28;20778;-74
2021/07/08 11:01:44;;;;;;;3.17;2.80;;;;;;;21.05;79.62;156776.06;5051352;28;20443;-74
2021/07/08 11:04:47;;;;;;;5.10;2.43;;;;;;;21.01;79.04;156765.66;5078180;28;20446;-74
2021/07/08 11:07:26;;;;;;;2.57;2.30;;;;;;;20.92;78.75;156742.16;5090508;28;20475;-75
2021/07/08 11:10:04;;;;;;;3.00;2.40;;;;;;;21.03;81.60;156770.88;5066885;28;20967;-74
2021/07/08 11:12:40;;;;;;;2.80;2.10;;;;;;;21.14;81.57;156800.94;5071256;28;20925;-74
2021/07/08 11:15:16;;;;;;;2.40;2.20;;;;;;;21.17;79.31;156807.47;5056321;28;20528;-74
2021/07/08 11:17:53;;;;;;;2.30;2.10;;;;;;;21.17;77.02;156808.78;5073250;28;20454;-74
2021/07/08 11:20:31;;;;;;;2.97;2.60;;;;;;;21.23;75.56;156824.41;5053716;28;20807;-74
2021/07/08 11:23:29;;;;;;;3.60;2.37;;;;;;;21.15;77.59;156803.53;5069634;28;20447;-74
2021/07/08 11:26:05;;;;;;;3.50;2.20;;;;;;;21.09;77.84;156786.59;5058871;28;20478;-74
2021/07/08 11:28:41;;;;;;;6.43;2.70;;;;;;;21.13;76.77;156797.00;5074275;28;20456;-74
2021/07/08 11:31:17;;;;;;;3.03;2.30;;;;;;;21.24;77.23;156827.03;5085372;28;20451;-74
2021/07/08 11:34:01;;;;;;;3.80;3.50;;;;;;;21.19;76.57;156812.69;5070539;28;20912;-74
2021/07/08 11:36:45;;;;;;;2.87;2.67;;;;;;;21.02;76.08;156769.56;5063876;28;20446;-74
2021/07/08 11:39:24;;;;;;;2.80;2.60;;;;;;;20.93;76.35;156744.78;5056541;28;20944;-74
2021/07/08 11:42:00;;;;;;;2.20;2.00;;;;;;;20.95;76.80;156751.31;5068296;28;20453;-74
2021/07/08 11:44:35;;;;;;;2.63;2.43;;;;;;;20.99;76.93;156760.44;5062325;28;20830;-74
2021/07/08 11:47:11;;;;;;;7.93;2.73;;;;;;;20.99;77.29;156761.75;5069513;28;20442;-74
2021/07/08 11:49:48;;;;;;;3.40;3.10;;;;;;;20.98;78.13;156757.81;5103943;28;20474;-74
2021/07/08 11:52:29;;;;;;;3.90;3.40;;;;;;;20.97;79.70;156755.25;5104219;28;20533;-74
2021/07/08 11:55:05;;;;;;;5.10;3.30;;;;;;;20.98;77.98;156759.13;5093766;28;20823;-74
2021/07/08 11:57:52;;;;;;;3.43;2.93;;;;;;;21.17;77.74;156807.47;5059548;28;20446;-74
2021/07/08 12:00:33;;;;;;;3.43;3.13;;;;;;;21.19;78.32;156814.00;5069310;28;20449;-74
2021/07/08 12:03:32;;;;;;;3.20;2.83;;;;;;;21.22;78.92;156820.53;5054474;28;20882;-74
2021/07/08 12:06:11;;;;;;;3.23;2.93;;;;;;;21.07;79.16;156782.69;5104820;28;20461;-74